Time;durP1;ratioP1;P1;durP2;ratioP2;P2;SDS_P1;SDS_P2;PMS_P1;PMS_P2;Temp;Humidity;BMP_temperature;BMP_pressure;BME280_temperature;BME280_humidity;BME280_pressure;Samples;Min_cycle;Max_cycle;Signal;HPM_P1;HPM_P2
2022/01/23 00:02:54;;;;;;;9.95;5.78;;;6.10;99.90;;;;;;4963604;28;20052;-75
2022/01/23 00:05:21;;;;;;;12.30;5.25;;;6.10;99.90;;;;;;4996084;28;20030;-75
2022/01/23 00:07:50;;;;;;;10.23;5.97;;;6.10;99.90;;;;;;4985479;28;20045;-74
2022/01/23 00:10:16;;;;;;;8.63;5.40;;;6.10;99.90;;;;;;4963473;28;20072;-74
2022/01/23 00:12:53;;;;;;;11.60;5.63;;;6.10;99.90;;;;;;4975440;28;20510;-74
2022/01/23 00:18:05;;;;;;;15.73;5.75;;;6.10;99.90;;;;;;5022906;28;20376;-74
2022/01/23 00:20:30;;;;;;;15.00;5.45;;;6.10;99.90;;;;;;4987705;28;20040;-75
2022/01/23 00:23:00;;;;;;;8.13;4.95;;;6.10;99.90;;;;;;4988485;28;20038;-74
2022/01/23 00:30:58;;;;;;;11.10;5.72;;;6.10;99.90;;;;;;5003252;28;20042;-74
2022/01/23 00:33:25;;;;;;;13.40;5.03;;;6.10;99.90;;;;;;5007031;28;20433;-74
2022/01/23 00:35:51;;;;;;;10.27;4.70;;;6.10;99.90;;;;;;5003451;28;20061;-74
2022/01/23 00:38:18;;;;;;;7.97;4.68;;;6.10;99.90;;;;;;4973514;28;20383;-74
2022/01/23 00:40:46;;;;;;;11.13;6.18;;;6.00;99.90;;;;;;4975578;28;20092;-74
2022/01/23 00:43:30;;;;;;;8.63;4.55;;;6.00;99.90;;;;;;5023845;28;20116;-75
2022/01/23 00:46:10;;;;;;;7.22;4.05;;;6.10;99.90;;;;;;5004728;28;20612;-74
2022/01/23 00:48:40;;;;;;;18.10;4.68;;;6.00;99.90;;;;;;5005498;28;20125;-74
2022/01/23 00:51:05;;;;;;;14.45;4.72;;;6.10;99.90;;;;;;4975696;28;20077;-74
2022/01/23 00:53:31;;;;;;;9.05;4.07;;;6.10;99.90;;;;;;4989781;28;20683;-74
2022/01/23 00:55:58;;;;;;;10.45;4.82;;;6.10;99.90;;;;;;4990030;28;20132;-74
2022/01/23 00:58:24;;;;;;;9.65;4.30;;;6.00;99.90;;;;;;5006427;28;20046;-74
2022/01/23 01:00:50;;;;;;;9.07;4.68;;;6.00;99.90;;;;;;5004293;28;20042;-74
2022/01/23 01:03:16;;;;;;;11.55;4.97;;;6.10;99.90;;;;;;4991184;28;20045;-74
2022/01/23 01:05:41;;;;;;;9.23;4.07;;;6.00;99.90;;;;;;4973715;28;20037;-74
2022/01/23 01:08:07;;;;;;;8.32;4.85;;;6.10;99.90;;;;;;4987762;28;20045;-75
2022/01/23 01:10:52;;;;;;;8.70;4.65;;;6.00;99.90;;;;;;5006875;28;20065;-74
2022/01/23 01:13:18;;;;;;;9.82;4.22;;;6.10;99.90;;;;;;4988751;28;20037;-75
2022/01/23 01:16:12;;;;;;;11.88;4.80;;;6.00;99.90;;;;;;4990215;28;20083;-75
2022/01/23 01:32:32;;;;;;;12.18;4.60;;;6.00;99.90;;;;;;5026530;28;20128;-74
2022/01/23 01:35:13;;;;;;;8.05;4.55;;;6.00;99.90;;;;;;5026849;28;20096;-74
2022/01/23 01:37:38;;;;;;;10.20;5.38;;;6.00;99.90;;;;;;4995236;28;20052;-75
2022/01/23 01:40:05;;;;;;;5.60;4.13;;;6.00;99.90;;;;;;5011766;28;20045;-74
2022/01/23 01:42:31;;;;;;;7.22;4.20;;;6.00;99.90;;;;;;4996756;28;20045;-74
2022/01/23 01:44:56;;;;;;;10.90;4.45;;;6.00;99.90;;;;;;4991908;28;20025;-75
2022/01/23 01:47:22;;;;;;;7.88;4.13;;;6.00;99.90;;;;;;4997690;28;20080;-75
2022/01/23 01:49:48;;;;;;;7.88;4.53;;;6.00;99.90;;;;;;5010947;28;20038;-75
2022/01/23 01:52:14;;;;;;;11.90;4.47;;;5.90;99.90;;;;;;5012724;28;20099;-75
2022/01/23 01:54:39;;;;;;;8.02;4.10;;;6.00;99.90;;;;;;4977973;28;20520;-74
2022/01/23 01:57:08;;;;;;;8.50;4.50;;;6.00;99.90;;;;;;4995296;28;20034;-75
2022/01/23 01:59:50;;;;;;;5.85;3.80;;;6.00;99.90;;;;;;4991232;28;20037;-74
2022/01/23 02:10:34;;;;;;;8.77;4.05;;;6.00;99.90;;;;;;5014353;28;20095;-75
2022/01/23 02:15:47;;;;;;;6.80;3.72;;;6.00;99.90;;;;;;5010350;28;20061;-75
2022/01/23 02:18:31;;;;;;;9.40;3.90;;;6.00;99.90;;;;;;5007796;28;20057;-74
2022/01/23 02:56:51;;;;;;;10.82;4.10;;;5.90;99.90;;;;;;4992161;28;20046;-74
2022/01/23 03:02:02;;;;;;;9.10;3.92;;;5.90;99.90;;;;;;5022473;28;20387;-74
2022/01/23 03:04:29;;;;;;;5.85;3.70;;;5.90;99.90;;;;;;5009612;28;20068;-75
2022/01/23 03:26:07;;;;;;;5.28;3.63;;;5.90;99.90;;;;;;5000210;28;20080;-75
2022/01/23 03:28:27;;;;;;;6.75;3.88;;;5.90;99.90;;;;;;5008303;28;20041;-75
2022/01/23 03:33:33;;;;;;;5.88;3.45;;;5.80;99.90;;;;;;5011018;28;20131;-74
2022/01/23 03:36:00;;;;;;;8.18;4.50;;;5.90;99.90;;;;;;4995562;28;20049;-74
2022/01/23 03:38:26;;;;;;;5.28;4.00;;;5.90;99.90;;;;;;4994065;28;20037;-75
2022/01/23 03:40:52;;;;;;;5.57;3.55;;;5.90;99.90;;;;;;5014218;28;20343;-74
2022/01/23 03:43:25;;;;;;;5.60;3.58;;;5.90;99.90;;;;;;5008259;28;20044;-74
2022/01/23 03:51:05;;;;;;;4.32;3.38;;;5.90;99.90;;;;;;4991336;28;20034;-74
2022/01/23 03:53:31;;;;;;;5.10;3.35;;;5.80;99.90;;;;;;5007841;28;20040;-75
2022/01/23 03:55:56;;;;;;;6.07;3.85;;;5.80;99.90;;;;;;4980302;28;20489;-75
2022/01/23 03:58:22;;;;;;;5.25;4.25;;;5.80;99.90;;;;;;4978555;28;20034;-75
2022/01/23 04:00:48;;;;;;;7.25;4.50;;;5.90;99.90;;;;;;4993214;28;20359;-74
2022/01/23 04:03:17;;;;;;;5.32;3.28;;;5.90;99.90;;;;;;4996538;28;20118;-74
2022/01/23 04:05:43;;;;;;;6.22;4.82;;;5.90;99.90;;;;;;4994073;28;20083;-74
2022/01/23 04:08:09;;;;;;;8.50;4.47;;;5.90;99.90;;;;;;4990148;28;20706;-74
2022/01/23 04:10:35;;;;;;;6.43;4.85;;;5.90;99.90;;;;;;4971679;28;20048;-75
2022/01/23 04:16:12;;;;;;;7.03;4.10;;;5.80;99.90;;;;;;4979797;28;20056;-75
2022/01/23 04:45:31;;;;;;;7.45;3.53;;;5.80;99.90;;;;;;5025517;28;20057;-75
2022/01/23 05:01:58;;;;;;;4.15;2.55;;;5.80;99.90;;;;;;4993957;28;20425;-74
2022/01/23 05:04:32;;;;;;;5.97;2.72;;;5.80;99.90;;;;;;5011994;28;20492;-74
2022/01/23 05:07:01;;;;;;;5.35;2.47;;;5.80;99.90;;;;;;5017348;28;20041;-74
2022/01/23 05:09:28;;;;;;;4.03;2.75;;;5.80;99.90;;;;;;5011349;28;20033;-75
2022/01/23 05:11:58;;;;;;;7.97;3.35;;;5.80;99.90;;;;;;4997934;28;20498;-74
2022/01/23 05:14:33;;;;;;;4.72;3.38;;;5.80;99.90;;;;;;5009578;28;20078;-75
2022/01/23 05:17:00;;;;;;;6.22;3.67;;;5.70;99.90;;;;;;4998356;28;20584;-74
2022/01/23 05:19:27;;;;;;;6.30;3.08;;;5.70;99.90;;;;;;5001039;28;20078;-74
2022/01/23 05:22:19;;;;;;;5.72;3.25;;;5.70;99.90;;;;;;4982602;28;20040;-74
2022/01/23 05:24:53;;;;;;;4.05;2.70;;;5.70;99.90;;;;;;4966720;28;20187;-75
2022/01/23 05:27:22;;;;;;;4.22;2.83;;;5.70;99.90;;;;;;4973243;28;20038;-74
2022/01/23 05:29:48;;;;;;;6.85;3.00;;;5.60;99.90;;;;;;4951696;28;20390;-74
2022/01/23 05:32:14;;;;;;;4.07;2.83;;;5.60;99.90;;;;;;4990184;28;20034;-75
2022/01/23 05:34:41;;;;;;;4.53;3.08;;;5.60;99.90;;;;;;5020251;28;20052;-74
2022/01/23 05:37:07;;;;;;;5.43;2.47;;;5.50;99.90;;;;;;4974121;28;20038;-74
2022/01/23 05:39:34;;;;;;;5.20;3.00;;;5.60;99.90;;;;;;4958668;28;20041;-75
2022/01/23 05:42:06;;;;;;;6.20;3.22;;;5.60;99.90;;;;;;4966982;28;20038;-75
2022/01/23 05:44:37;;;;;;;4.10;2.88;;;5.60;99.90;;;;;;4998279;28;20438;-75
2022/01/23 05:47:05;;;;;;;6.57;3.13;;;5.50;99.90;;;;;;4960326;28;20038;-75
2022/01/23 05:49:31;;;;;;;4.53;3.17;;;5.60;99.90;;;;;;5005927;28;20430;-75
2022/01/23 05:51:57;;;;;;;5.22;3.17;;;5.50;99.90;;;;;;4997480;28;20041;-75
2022/01/23 05:54:22;;;;;;;6.03;3.20;;;5.50;99.90;;;;;;5012299;28;20422;-75
2022/01/23 05:56:48;;;;;;;6.10;3.67;;;5.50;99.90;;;;;;4974485;28;20045;-75
2022/01/23 05:59:16;;;;;;;8.63;3.53;;;5.50;99.90;;;;;;4990624;28;20087;-75
2022/01/23 06:01:42;;;;;;;4.43;3.05;;;5.50;99.90;;;;;;4988796;28;20820;-75
2022/01/23 06:04:09;;;;;;;12.95;3.05;;;5.50;99.90;;;;;;4996346;28;20037;-75
2022/01/23 06:06:35;;;;;;;31.65;5.30;;;5.50;99.90;;;;;;4986767;28;20244;-75
2022/01/23 06:09:01;;;;;;;7.15;3.63;;;5.50;99.90;;;;;;4999765;28;20462;-75
2022/01/23 06:11:26;;;;;;;4.85;3.60;;;5.50;99.90;;;;;;4965608;28;20060;-75
2022/01/23 06:13:52;;;;;;;9.45;3.75;;;5.50;99.90;;;;;;4958189;28;20045;-75
2022/01/23 06:16:18;;;;;;;19.58;4.65;;;5.50;99.90;;;;;;5006171;28;20065;-75
2022/01/23 06:18:45;;;;;;;5.72;3.17;;;5.50;99.90;;;;;;5011598;28;20128;-75
2022/01/23 06:21:13;;;;;;;7.32;3.17;;;5.50;99.90;;;;;;5011053;28;20213;-75
2022/01/23 06:23:39;;;;;;;11.77;4.30;;;5.40;99.90;;;;;;5013455;28;20037;-74
2022/01/23 06:26:05;;;;;;;14.20;4.00;;;5.40;99.90;;;;;;4996069;28;20029;-75
2022/01/23 06:28:49;;;;;;;6.15;4.32;;;5.40;99.90;;;;;;4979213;28;20041;-74
2022/01/23 06:31:15;;;;;;;8.45;4.53;;;5.40;99.90;;;;;;5025671;28;20045;-75
2022/01/23 06:33:41;;;;;;;7.65;4.45;;;5.40;99.90;;;;;;5013488;28;20129;-75
2022/01/23 06:36:07;;;;;;;11.55;3.97;;;5.40;99.90;;;;;;5009632;28;20044;-75
2022/01/23 06:38:33;;;;;;;14.45;5.45;;;5.40;99.90;;;;;;4995052;28;20509;-75
2022/01/23 06:40:58;;;;;;;15.52;5.03;;;5.40;99.90;;;;;;5011632;28;20125;-75
2022/01/23 06:43:24;;;;;;;12.98;4.35;;;5.50;99.90;;;;;;5008890;28;20091;-75
2022/01/23 06:45:50;;;;;;;8.23;4.90;;;5.40;99.90;;;;;;5008978;28;20065;-75
2022/01/23 06:48:16;;;;;;;6.22;3.97;;;5.40;99.90;;;;;;4994228;28;20048;-75
2022/01/23 06:50:42;;;;;;;5.78;4.18;;;5.40;99.90;;;;;;4991876;28;20038;-83
2022/01/23 06:53:08;;;;;;;7.07;3.53;;;5.40;99.90;;;;;;5009575;28;20048;-75
2022/01/23 06:55:33;;;;;;;5.65;4.00;;;5.50;99.90;;;;;;4994192;28;20037;-75
2022/01/23 06:57:59;;;;;;;6.13;4.30;;;5.40;99.90;;;;;;4995072;28;20037;-75
2022/01/23 07:00:25;;;;;;;5.97;4.22;;;5.50;99.90;;;;;;4998509;28;20037;-84
2022/01/23 07:02:51;;;;;;;6.45;4.15;;;5.50;99.90;;;;;;5010845;28;20136;-84
2022/01/23 07:05:16;;;;;;;6.85;4.63;;;5.40;99.90;;;;;;5013958;28;20063;-84
2022/01/23 07:07:42;;;;;;;5.25;4.10;;;5.50;99.90;;;;;;4993320;28;20048;-83
2022/01/23 07:10:08;;;;;;;6.50;4.40;;;5.50;99.90;;;;;;5009731;28;20200;-84
2022/01/23 07:12:34;;;;;;;7.68;4.93;;;5.50;99.90;;;;;;5007754;28;20045;-84
2022/01/23 07:15:00;;;;;;;5.32;3.80;;;5.50;99.90;;;;;;5009177;28;20332;-84
2022/01/23 07:17:26;;;;;;;7.03;4.03;;;5.50;99.90;;;;;;5016619;28;20049;-84
2022/01/23 07:19:51;;;;;;;6.72;3.95;;;5.50;99.90;;;;;;4991252;28;20045;-83
2022/01/23 07:22:17;;;;;;;5.72;4.20;;;5.50;99.90;;;;;;5009330;28;20047;-83
2022/01/23 07:24:43;;;;;;;6.28;3.33;;;5.50;99.90;;;;;;4992206;28;20055;-87
2022/01/23 07:27:16;;;;;;;5.95;3.25;;;5.50;99.90;;;;;;4990826;28;20069;-84
2022/01/23 07:29:43;;;;;;;5.38;3.45;;;5.50;99.90;;;;;;5008394;28;20052;-84
2022/01/23 07:32:10;;;;;;;6.57;3.90;;;5.50;99.90;;;;;;4991477;28;20073;-84
2022/01/23 07:34:36;;;;;;;4.63;3.20;;;5.50;99.90;;;;;;5028039;28;20051;-84
2022/01/23 07:37:01;;;;;;;6.20;3.88;;;5.50;99.90;;;;;;5007094;28;20080;-84
2022/01/23 07:39:27;;;;;;;4.80;3.22;;;5.50;99.90;;;;;;4988535;28;20538;-85
2022/01/23 07:41:53;;;;;;;6.60;4.10;;;5.50;99.90;;;;;;5008615;28;20037;-85
2022/01/23 07:44:19;;;;;;;4.22;3.35;;;5.50;99.90;;;;;;4990953;28;20467;-84
2022/01/23 07:46:45;;;;;;;5.00;3.42;;;5.50;99.90;;;;;;5008734;28;20128;-84
2022/01/23 07:49:11;;;;;;;6.35;3.20;;;5.50;99.90;;;;;;5008774;28;20044;-83
2022/01/23 07:51:36;;;;;;;5.03;3.65;;;5.50;99.90;;;;;;5008124;28;20171;-83
2022/01/23 07:54:03;;;;;;;7.43;3.50;;;5.50;99.90;;;;;;5008642;28;20397;-83
2022/01/23 07:56:29;;;;;;;6.05;3.63;;;5.50;99.90;;;;;;4989307;28;20159;-83
2022/01/23 07:58:54;;;;;;;5.20;3.47;;;5.50;99.90;;;;;;5009812;28;20133;-84
2022/01/23 08:01:20;;;;;;;3.67;2.63;;;5.50;99.90;;;;;;5009333;28;20057;-83
2022/01/23 08:03:46;;;;;;;5.13;2.78;;;5.50;99.90;;;;;;4991916;28;20037;-83
2022/01/23 08:06:12;;;;;;;5.07;3.25;;;5.60;99.90;;;;;;4996235;28;20616;-83
2022/01/23 08:08:39;;;;;;;3.75;2.83;;;5.50;99.90;;;;;;5008880;28;20049;-83
2022/01/23 08:11:05;;;;;;;4.50;2.83;;;5.50;99.90;;;;;;5007666;28;20041;-83
2022/01/23 08:13:31;;;;;;;6.68;3.40;;;5.50;99.90;;;;;;4994259;28;20140;-83
2022/01/23 08:15:57;;;;;;;3.70;2.05;;;5.50;99.90;;;;;;5005674;28;20144;-83
2022/01/23 08:18:23;;;;;;;5.95;3.67;;;5.60;99.90;;;;;;5006260;28;20053;-83
2022/01/23 08:20:49;;;;;;;6.30;3.22;;;5.60;99.90;;;;;;4993924;28;20440;-83
2022/01/23 08:23:15;;;;;;;3.78;2.40;;;5.60;99.90;;;;;;5024270;28;20072;-84
2022/01/23 08:25:41;;;;;;;6.15;3.17;;;5.60;99.90;;;;;;4993188;28;20041;-84
2022/01/23 08:28:10;;;;;;;6.70;3.97;;;5.60;99.90;;;;;;5004500;28;20067;-82
2022/01/23 08:30:36;;;;;;;7.03;3.35;;;5.60;99.90;;;;;;4988883;28;20416;-82
2022/01/23 08:33:02;;;;;;;4.80;3.22;;;5.60;99.90;;;;;;5008485;28;20063;-84
2022/01/23 08:35:29;;;;;;;7.28;4.40;;;5.60;99.90;;;;;;5006993;28;20052;-84
2022/01/23 08:37:55;;;;;;;9.85;4.70;;;5.60;99.90;;;;;;5009955;28;20056;-84
2022/01/23 08:40:34;;;;;;;8.55;4.65;;;5.60;99.90;;;;;;5002397;28;20046;-84
2022/01/23 08:42:59;;;;;;;8.43;4.70;;;5.60;99.90;;;;;;4989147;28;20121;-85
2022/01/23 08:45:25;;;;;;;6.97;4.50;;;5.60;99.90;;;;;;5006640;28;20187;-83
2022/01/23 08:47:51;;;;;;;7.13;4.28;;;5.60;99.90;;;;;;4990041;28;20124;-85
2022/01/23 08:50:17;;;;;;;6.28;4.55;;;5.60;99.90;;;;;;4986580;28;20292;-84
2022/01/23 08:52:43;;;;;;;6.95;3.65;;;5.60;99.90;;;;;;5007680;28;20107;-83
2022/01/23 08:55:09;;;;;;;6.05;4.00;;;5.70;99.90;;;;;;4990405;28;20131;-83
2022/01/23 08:57:35;;;;;;;5.85;4.05;;;5.60;99.90;;;;;;5023045;28;20081;-83
2022/01/23 09:00:01;;;;;;;6.55;4.32;;;5.60;99.90;;;;;;4990834;28;20037;-84
2022/01/23 09:02:28;;;;;;;6.97;4.30;;;5.70;99.90;;;;;;5011462;28;20389;-84
2022/01/23 09:04:54;;;;;;;5.55;3.90;;;5.70;99.90;;;;;;5011809;28;20040;-83
2022/01/23 09:07:20;;;;;;;6.20;3.72;;;5.70;99.90;;;;;;4999809;28;20041;-84
2022/01/23 09:09:46;;;;;;;6.78;3.80;;;5.70;99.90;;;;;;4992032;28;20053;-84
2022/01/23 09:14:40;;;;;;;5.45;3.17;;;5.70;99.90;;;;;;4993760;28;20041;-83
2022/01/23 09:17:06;;;;;;;6.20;3.42;;;5.80;99.90;;;;;;5005469;28;20049;-84
2022/01/23 09:19:32;;;;;;;4.80;3.05;;;5.80;99.90;;;;;;5012971;28;20114;-83
2022/01/23 09:21:59;;;;;;;6.18;3.42;;;5.80;99.90;;;;;;4995171;28;20029;-84
2022/01/23 09:24:27;;;;;;;5.65;3.50;;;5.80;99.90;;;;;;5004556;28;20099;-83
2022/01/23 09:27:00;;;;;;;6.93;3.22;;;5.90;99.90;;;;;;5008813;28;20532;-84
2022/01/23 09:29:35;;;;;;;6.15;3.20;;;5.80;99.90;;;;;;4992273;28;20124;-73
2022/01/23 09:32:02;;;;;;;7.00;3.72;;;5.90;99.90;;;;;;5009703;28;20073;-73
2022/01/23 09:34:31;;;;;;;8.32;4.40;;;5.90;99.90;;;;;;5024529;28;20053;-82
2022/01/23 09:36:59;;;;;;;9.00;5.57;;;5.90;99.90;;;;;;5012530;28;20076;-83
2022/01/23 09:39:25;;;;;;;12.57;5.43;;;5.90;99.90;;;;;;5011623;28;20378;-83
2022/01/23 09:41:58;;;;;;;9.90;4.40;;;5.90;99.90;;;;;;5014060;28;20042;-83
2022/01/23 09:44:28;;;;;;;7.03;4.47;;;5.90;99.90;;;;;;5011297;28;20053;-83
2022/01/23 09:46:56;;;;;;;13.05;6.45;;;5.90;99.90;;;;;;5013335;28;20583;-84
2022/01/23 09:49:24;;;;;;;7.95;5.07;;;6.00;99.90;;;;;;4999718;28;20045;-74
2022/01/23 09:51:52;;;;;;;10.43;5.25;;;6.00;99.90;;;;;;5010184;28;20046;-74
2022/01/23 09:54:19;;;;;;;6.20;4.22;;;6.00;99.90;;;;;;5014322;28;20042;-74
2022/01/23 09:56:45;;;;;;;6.38;4.07;;;6.00;99.90;;;;;;4995864;28;20462;-74
2022/01/23 09:59:13;;;;;;;6.47;4.40;;;6.10;99.90;;;;;;4993109;28;20088;-75
2022/01/23 10:01:42;;;;;;;8.32;3.83;;;6.10;99.90;;;;;;5010392;28;20055;-75
2022/01/23 10:04:09;;;;;;;7.55;3.95;;;6.10;99.90;;;;;;4996010;28;20077;-74
2022/01/23 10:06:35;;;;;;;8.30;4.35;;;6.10;99.90;;;;;;4992899;28;20469;-75
2022/01/23 10:09:06;;;;;;;11.48;5.30;;;6.10;99.90;;;;;;5031588;28;20048;-75
2022/01/23 10:11:36;;;;;;;13.68;4.43;;;6.10;99.90;;;;;;5014414;28;20092;-75
2022/01/23 10:14:02;;;;;;;9.82;5.20;;;6.10;99.90;;;;;;4994809;28;20040;-75
2022/01/23 10:16:30;;;;;;;8.65;4.80;;;6.20;99.90;;;;;;4996484;28;20114;-75
2022/01/23 10:19:01;;;;;;;9.02;4.88;;;6.20;99.90;;;;;;4994530;28;20049;-75
2022/01/23 10:21:29;;;;;;;10.38;4.65;;;6.20;99.90;;;;;;5008230;28;20070;-75
2022/01/23 10:23:56;;;;;;;8.98;5.05;;;6.20;99.90;;;;;;5006341;28;20066;-75
2022/01/23 10:26:51;;;;;;;8.15;5.43;;;6.20;99.90;;;;;;5004287;28;20081;-75
2022/01/23 10:29:30;;;;;;;7.82;4.38;;;6.20;99.90;;;;;;5005096;28;20176;-75
2022/01/23 10:32:11;;;;;;;10.40;4.93;;;6.20;99.90;;;;;;5009623;28;20040;-75
2022/01/23 10:34:58;;;;;;;8.00;5.45;;;6.20;99.90;;;;;;5005501;28;20192;-75
2022/01/23 10:37:29;;;;;;;8.43;4.90;;;6.20;99.90;;;;;;4992033;28;20064;-75
2022/01/23 10:39:56;;;;;;;8.85;4.93;;;6.20;99.90;;;;;;5007125;28;20041;-75
2022/01/23 10:47:52;;;;;;;9.90;4.90;;;6.20;99.90;;;;;;4985202;28;20509;-75
2022/01/23 10:50:22;;;;;;;7.78;4.72;;;6.20;99.90;;;;;;5010291;28;20056;-75
2022/01/23 10:52:50;;;;;;;9.40;4.93;;;6.20;99.90;;;;;;5008994;28;20402;-75
2022/01/23 10:55:33;;;;;;;12.13;5.22;;;6.20;99.90;;;;;;4992131;28;20100;-74
2022/01/23 10:58:02;;;;;;;11.13;5.65;;;6.30;99.90;;;;;;5014324;28;20718;-73
2022/01/23 11:00:28;;;;;;;9.88;4.95;;;6.20;99.90;;;;;;4976084;28;20048;-74
2022/01/23 11:02:56;;;;;;;9.98;5.43;;;6.30;99.90;;;;;;5001655;28;20041;-74
2022/01/23 11:05:39;;;;;;;10.07;4.95;;;6.30;99.90;;;;;;5007509;28;20392;-74
2022/01/23 11:08:32;;;;;;;12.07;5.57;;;6.30;99.90;;;;;;5007820;28;20101;-75
2022/01/23 11:10:59;;;;;;;10.15;5.97;;;6.30;99.90;;;;;;5003999;28;20038;-75
2022/01/23 11:19:26;;;;;;;11.27;4.88;;;6.30;99.90;;;;;;5007632;28;20206;-74
2022/01/23 11:21:53;;;;;;;10.23;6.20;;;6.30;99.90;;;;;;4989595;28;20049;-74
2022/01/23 11:24:20;;;;;;;12.57;5.85;;;6.30;99.90;;;;;;5009365;28;20049;-75
2022/01/23 11:26:46;;;;;;;6.90;4.72;;;6.30;99.90;;;;;;5011077;28;20124;-75
2022/01/23 11:29:17;;;;;;;14.40;6.47;;;6.30;99.90;;;;;;5013358;28;20187;-74
2022/01/23 11:31:44;;;;;;;13.63;6.35;;;6.30;99.90;;;;;;5020835;28;20049;-75
2022/01/23 11:34:12;;;;;;;13.20;5.93;;;6.30;99.90;;;;;;4990945;28;20509;-75
2022/01/23 11:36:39;;;;;;;8.70;5.20;;;6.30;99.90;;;;;;5006059;28;20038;-75
2022/01/23 11:39:14;;;;;;;10.25;6.00;;;6.40;99.90;;;;;;4991432;28;20049;-75
2022/01/23 11:56:36;;;;;;;10.48;5.00;;;6.40;99.90;;;;;;5018054;28;20085;-74
2022/01/23 11:59:25;;;;;;;10.40;5.50;;;6.40;99.90;;;;;;4977324;28;20578;-73
2022/01/23 12:02:13;;;;;;;11.68;5.45;;;6.40;99.90;;;;;;5006478;28;20038;-74
2022/01/23 12:04:39;;;;;;;8.65;5.07;;;6.50;99.90;;;;;;5003550;28;20386;-74
2022/01/23 12:07:12;;;;;;;8.60;5.30;;;6.50;99.90;;;;;;5016968;28;20037;-73
2022/01/23 12:09:43;;;;;;;7.07;4.20;;;6.50;99.90;;;;;;5021690;28;20088;-73
2022/01/23 12:18:18;;;;;;;7.10;5.05;;;6.50;99.90;;;;;;5004248;28;20107;-74
2022/01/23 12:20:45;;;;;;;7.75;4.90;;;6.50;99.90;;;;;;5013102;28;20040;-73
2022/01/23 12:23:12;;;;;;;9.10;4.80;;;6.50;99.90;;;;;;5011133;28;20081;-74
2022/01/23 12:25:50;;;;;;;10.52;5.20;;;6.50;99.90;;;;;;5009948;28;20037;-74
2022/01/23 12:28:27;;;;;;;10.32;5.30;;;6.50;99.90;;;;;;5006980;28;20045;-74
2022/01/23 12:30:59;;;;;;;5.65;4.00;;;6.50;99.90;;;;;;5009179;28;20044;-74
2022/01/23 12:33:50;;;;;;;8.13;4.55;;;6.50;99.90;;;;;;5004572;28;20033;-74
2022/01/23 12:36:15;;;;;;;5.55;4.07;;;6.50;99.90;;;;;;4990214;28;20120;-74
2022/01/23 12:38:46;;;;;;;6.88;3.90;;;6.50;99.90;;;;;;5007728;28;20044;-74
2022/01/23 12:41:22;;;;;;;10.40;4.35;;;6.60;99.90;;;;;;5001733;28;20095;-74
2022/01/23 12:43:53;;;;;;;7.90;4.28;;;6.60;99.90;;;;;;5009802;28;20076;-74
2022/01/23 12:46:27;;;;;;;8.93;5.07;;;6.60;99.90;;;;;;5009449;28;20453;-74
2022/01/23 12:48:54;;;;;;;6.28;4.10;;;6.50;99.90;;;;;;4993240;28;20652;-74
2022/01/23 12:51:36;;;;;;;8.75;4.45;;;6.60;99.90;;;;;;4979548;28;20038;-73
2022/01/23 12:54:05;;;;;;;8.05;4.43;;;6.60;99.90;;;;;;4991914;28;20029;-73
2022/01/23 12:56:45;;;;;;;7.97;4.20;;;6.60;99.90;;;;;;4973532;28;20517;-73
2022/01/23 12:59:25;;;;;;;9.52;4.43;;;6.60;99.90;;;;;;5007510;28;20037;-74
2022/01/23 13:02:03;;;;;;;8.25;4.95;;;6.60;99.90;;;;;;4993618;28;20045;-75
2022/01/23 13:04:40;;;;;;;7.60;4.97;;;6.60;99.90;;;;;;4987898;28;20112;-74
2022/01/23 13:07:18;;;;;;;8.05;4.68;;;6.60;99.90;;;;;;4972886;28;20090;-74
2022/01/23 13:09:52;;;;;;;8.20;4.43;;;6.60;99.90;;;;;;5024667;28;20120;-74
2022/01/23 13:12:36;;;;;;;9.55;4.82;;;6.60;99.90;;;;;;5007452;28;20045;-74
2022/01/23 13:31:45;;;;;;;9.48;4.63;;;6.60;99.90;;;;;;4986676;28;20139;-74
2022/01/23 13:34:25;;;;;;;6.13;4.13;;;6.60;99.90;;;;;;4986779;28;20194;-74
2022/01/23 13:36:55;;;;;;;6.78;4.35;;;6.70;99.90;;;;;;4991765;28;20037;-74
2022/01/23 13:39:23;;;;;;;7.18;3.85;;;6.70;99.90;;;;;;4987880;28;20080;-74
2022/01/23 13:42:10;;;;;;;5.13;3.47;;;6.70;99.90;;;;;;5009301;28;20041;-74
2022/01/23 13:52:42;;;;;;;7.85;4.43;;;6.70;99.90;;;;;;5009290;28;20402;-77
2022/01/23 13:58:39;;;;;;;7.35;4.72;;;6.60;99.90;;;;;;4988493;28;20462;-76
2022/01/23 14:00:38;;;;;;;9.15;4.63;;;6.60;99.90;;;;;;4962999;28;20061;-75
2022/01/23 14:03:05;;;;;;;9.73;5.88;;;6.60;99.90;;;;;;5007345;28;20411;-74
2022/01/23 14:05:32;;;;;;;6.68;4.13;;;6.60;99.90;;;;;;5003625;28;20037;-75
2022/01/23 14:08:01;;;;;;;6.15;4.53;;;6.60;99.90;;;;;;5008649;28;20037;-74
2022/01/23 14:10:39;;;;;;;7.00;4.70;;;6.60;99.90;;;;;;4974623;28;20051;-75
2022/01/23 14:13:12;;;;;;;7.55;4.60;;;6.60;99.90;;;;;;4987988;28;20046;-79
2022/01/23 14:15:52;;;;;;;7.40;5.72;;;6.60;99.90;;;;;;4979649;28;20037;-78
2022/01/23 14:18:22;;;;;;;5.93;4.55;;;6.60;99.90;;;;;;4991705;28;20477;-79
2022/01/23 14:20:59;;;;;;;8.82;5.32;;;6.60;99.90;;;;;;4990485;28;20393;-79
2022/01/23 14:23:25;;;;;;;8.43;4.95;;;6.60;99.90;;;;;;4973315;28;20650;-78
2022/01/23 14:25:57;;;;;;;6.85;4.43;;;6.60;99.90;;;;;;4991229;28;20344;-78
2022/01/23 14:28:28;;;;;;;10.68;5.03;;;6.60;99.90;;;;;;4981380;28;20045;-79
2022/01/23 14:31:01;;;;;;;8.40;4.60;;;6.60;99.90;;;;;;4991383;28;20050;-79
2022/01/23 14:33:31;;;;;;;;;;;6.60;99.90;;;;;;4979455;28;20042;-79
2022/01/23 14:35:57;;;;;;;5.82;4.55;;;6.60;99.90;;;;;;4989479;28;19965;-79
2022/01/23 14:38:25;;;;;;;6.32;4.18;;;6.60;99.90;;;;;;4976328;28;20038;-78
2022/01/23 14:41:02;;;;;;;5.40;4.03;;;6.50;99.90;;;;;;4978500;28;20088;-79
2022/01/23 14:43:38;;;;;;;6.30;3.88;;;6.60;99.90;;;;;;4965782;28;20034;-79
2022/01/23 14:46:08;;;;;;;7.80;4.22;;;6.60;99.90;;;;;;4990154;28;20074;-78
2022/01/23 14:48:45;;;;;;;6.63;3.88;;;6.60;99.90;;;;;;4994300;28;20121;-78
2022/01/23 14:51:19;;;;;;;6.88;3.90;;;6.60;99.90;;;;;;4956603;28;20038;-78
2022/01/23 14:53:45;;;;;;;7.82;4.57;;;6.50;99.90;;;;;;4974494;28;20121;-78
2022/01/23 14:56:13;;;;;;;7.88;4.30;;;6.50;99.90;;;;;;5007276;28;20039;-79
2022/01/23 14:58:40;;;;;;;9.07;4.57;;;6.50;99.90;;;;;;4958750;28;20121;-79
2022/01/23 15:01:10;;;;;;;10.35;4.45;;;6.50;99.90;;;;;;4992101;28;20038;-79
2022/01/23 15:03:37;;;;;;;8.43;4.93;;;6.60;99.90;;;;;;4961990;28;20368;-79
2022/01/23 15:06:03;;;;;;;6.80;4.05;;;6.50;99.90;;;;;;4975979;28;20494;-79
2022/01/23 15:08:29;;;;;;;7.90;4.90;;;6.50;99.90;;;;;;4992892;28;20040;-79
2022/01/23 15:10:58;;;;;;;7.70;4.78;;;6.50;99.90;;;;;;4977167;28;20072;-79
2022/01/23 15:13:25;;;;;;;7.97;4.00;;;6.50;99.90;;;;;;5008594;28;20046;-79
2022/01/23 15:15:53;;;;;;;7.55;4.45;;;6.50;99.90;;;;;;4981049;28;20112;-79
2022/01/23 15:18:19;;;;;;;8.07;4.28;;;6.50;99.90;;;;;;4993882;28;20057;-79
2022/01/23 15:20:46;;;;;;;6.07;4.13;;;6.50;99.90;;;;;;4995404;28;20038;-78
2022/01/23 15:23:13;;;;;;;7.38;4.25;;;6.40;99.90;;;;;;4979995;28;20037;-79
2022/01/23 15:25:39;;;;;;;7.75;4.53;;;6.50;99.90;;;;;;5026540;28;20424;-79
2022/01/23 15:28:06;;;;;;;6.32;3.88;;;6.50;99.90;;;;;;5012728;28;20036;-79
2022/01/23 15:30:32;;;;;;;6.47;4.00;;;6.40;99.90;;;;;;4990527;28;20448;-79
2022/01/23 15:33:01;;;;;;;5.88;4.05;;;6.40;99.90;;;;;;5010006;28;20104;-79
2022/01/23 15:35:27;;;;;;;6.88;4.40;;;6.40;99.90;;;;;;5012867;28;20041;-79
2022/01/23 15:37:54;;;;;;;6.65;4.80;;;6.50;99.90;;;;;;4965318;28;20076;-79
2022/01/23 15:40:21;;;;;;;6.88;4.63;;;6.40;99.90;;;;;;5008978;28;20049;-78
2022/01/23 15:42:49;;;;;;;6.88;3.83;;;6.40;99.90;;;;;;5012664;28;20041;-78
2022/01/23 15:45:15;;;;;;;6.50;4.07;;;6.50;99.90;;;;;;4998533;28;20041;-79
2022/01/23 15:47:41;;;;;;;7.82;4.97;;;6.40;99.90;;;;;;4996623;28;20588;-79
2022/01/23 15:50:09;;;;;;;7.43;4.07;;;6.40;99.90;;;;;;4975284;28;20064;-79
2022/01/23 15:52:35;;;;;;;8.10;4.55;;;6.40;99.90;;;;;;4993984;28;20037;-79
2022/01/23 15:55:00;;;;;;;7.95;4.63;;;6.40;99.90;;;;;;5011554;28;20349;-79
2022/01/23 15:57:26;;;;;;;8.68;4.65;;;6.40;99.90;;;;;;5012131;28;20516;-78
2022/01/23 15:59:52;;;;;;;6.80;4.15;;;6.40;99.90;;;;;;4996156;28;20061;-79
2022/01/23 16:02:18;;;;;;;7.28;3.92;;;6.40;99.90;;;;;;5009743;28;20072;-79
2022/01/23 16:04:44;;;;;;;5.95;3.42;;;6.40;99.90;;;;;;4963879;28;20124;-79
2022/01/23 16:07:16;;;;;;;7.82;3.88;;;6.40;99.90;;;;;;5006706;28;20029;-79
2022/01/23 16:09:42;;;;;;;6.25;3.80;;;6.40;99.90;;;;;;4991277;28;20036;-78
2022/01/23 16:12:09;;;;;;;5.53;3.85;;;6.30;99.90;;;;;;5003645;28;20037;-79
2022/01/23 16:14:35;;;;;;;6.18;4.35;;;6.30;99.90;;;;;;5009952;28;20141;-79
2022/01/23 16:17:01;;;;;;;9.60;5.32;;;6.30;99.90;;;;;;5006767;28;20144;-79
2022/01/23 16:19:26;;;;;;;10.68;6.28;;;6.30;99.90;;;;;;4986824;28;20046;-79
2022/01/23 16:21:54;;;;;;;5.32;4.32;;;6.30;99.90;;;;;;4972394;28;20049;-79
2022/01/23 16:24:22;;;;;;;8.00;4.78;;;6.30;99.90;;;;;;5007068;28;20041;-78
2022/01/23 16:26:49;;;;;;;8.77;5.38;;;6.30;99.90;;;;;;5006878;28;20417;-79
2022/01/23 16:29:16;;;;;;;7.38;4.60;;;6.30;99.90;;;;;;5005409;28;20335;-79
2022/01/23 16:31:41;;;;;;;8.15;4.35;;;6.30;99.90;;;;;;4990967;28;20491;-79